Time;durP1;ratioP1;P1;durP2;ratioP2;P2;SDS_P1;SDS_P2;PMS_P1;PMS_P2;Temp;Humidity;BMP_temperature;BMP_pressure;BME280_temperature;BME280_humidity;BME280_pressure;Samples;Min_cycle;Max_cycle;Signal;HPM_P1;HPM_P2
2021/04/13 00:02:38;;;;;;;10.90;2.90;;;;;;;;;;4984742;28;20194;-69
2021/04/13 00:05:19;;;;;;;8.93;2.47;;;;;;;;;;5000203;28;20543;-69
2021/04/13 00:07:47;;;;;;;8.97;2.87;;;;;;;;;;4996682;28;20687;-70
2021/04/13 00:10:17;;;;;;;7.10;2.60;;;;;;;;;;4996795;28;20309;-70
2021/04/13 00:12:42;;;;;;;10.37;2.93;;;;;;;;;;4988558;28;20921;-69
2021/04/13 00:15:14;;;;;;;9.70;3.03;;;;;;;;;;5014374;28;20270;-69
2021/04/13 00:17:42;;;;;;;8.17;3.67;;;;;;;;;;4987055;28;20183;-69
2021/04/13 00:20:40;;;;;;;8.43;3.00;;;;;;;;;;4993156;28;20183;-69
2021/04/13 00:23:07;;;;;;;7.23;3.10;;;;;;;;;;4983661;28;20183;-69
2021/04/13 00:25:38;;;;;;;7.40;3.27;;;;;;;;;;4998867;28;20418;-69
2021/04/13 00:28:06;;;;;;;9.90;3.53;;;;;;;;;;4986394;28;20199;-69
2021/04/13 00:30:45;;;;;;;6.17;2.93;;;;;;;;;;4990707;28;20605;-69
2021/04/13 00:33:16;;;;;;;12.03;2.80;;;;;;;;;;4982641;28;20198;-69
2021/04/13 00:35:46;;;;;;;11.03;3.07;;;;;;;;;;4988189;28;20266;-69
2021/04/13 00:38:21;;;;;;;8.03;2.97;;;;;;;;;;4986768;28;20183;-68
2021/04/13 00:40:48;;;;;;;7.37;3.20;;;;;;;;;;5016479;28;20226;-69
2021/04/13 00:43:16;;;;;;;6.03;2.77;;;;;;;;;;4982372;28;20655;-70
2021/04/13 00:45:44;;;;;;;10.10;3.37;;;;;;;;;;4996574;28;21380;-70
2021/04/13 00:48:11;;;;;;;7.33;2.83;;;;;;;;;;4986386;28;20704;-70
2021/04/13 00:50:42;;;;;;;9.50;3.60;;;;;;;;;;4991517;28;20685;-70
2021/04/13 00:53:11;;;;;;;6.00;3.10;;;;;;;;;;4983998;28;20187;-70
2021/04/13 00:55:40;;;;;;;7.27;3.00;;;;;;;;;;5000239;28;20183;-70
2021/04/13 00:58:26;;;;;;;12.47;2.87;;;;;;;;;;4982958;28;20222;-70
2021/04/13 01:00:55;;;;;;;9.33;3.10;;;;;;;;;;4995974;28;20194;-70
2021/04/13 01:03:21;;;;;;;8.73;3.07;;;;;;;;;;4978929;28;20749;-70
2021/04/13 01:05:52;;;;;;;10.97;3.70;;;;;;;;;;4994390;28;20290;-70
2021/04/13 01:08:37;;;;;;;12.77;3.57;;;;;;;;;;4995182;28;20597;-70
2021/04/13 01:11:29;;;;;;;5.73;3.23;;;;;;;;;;4991909;28;20730;-70
2021/04/13 01:14:00;;;;;;;9.20;3.80;;;;;;;;;;4985751;28;20300;-69
2021/04/13 01:16:30;;;;;;;9.43;3.60;;;;;;;;;;4991144;28;20184;-69
2021/04/13 01:19:00;;;;;;;10.00;3.90;;;;;;;;;;4998289;28;20179;-69
2021/04/13 01:21:42;;;;;;;8.40;3.10;;;;;;;;;;4984321;28;20179;-70
2021/04/13 01:24:20;;;;;;;9.10;3.83;;;;;;;;;;4996855;28;20326;-69
2021/04/13 01:26:48;;;;;;;8.07;3.47;;;;;;;;;;4988468;28;20207;-69
2021/04/13 01:29:16;;;;;;;5.83;3.50;;;;;;;;;;4996342;28;20614;-70
2021/04/13 01:31:48;;;;;;;8.83;3.77;;;;;;;;;;4985945;28;20186;-68
2021/04/13 01:34:57;;;;;;;9.40;3.70;;;;;;;;;;4990302;28;20183;-69
2021/04/13 01:37:42;;;;;;;7.83;3.47;;;;;;;;;;4994213;28;20183;-70
2021/04/13 01:40:23;;;;;;;8.47;4.03;;;;;;;;;;4985523;28;20214;-70
2021/04/13 01:42:50;;;;;;;8.83;3.83;;;;;;;;;;4988429;28;20195;-70
2021/04/13 01:45:20;;;;;;;9.50;3.80;;;;;;;;;;4995473;28;20226;-69
2021/04/13 01:47:46;;;;;;;11.40;3.63;;;;;;;;;;4992713;28;20221;-69
2021/04/13 01:50:21;;;;;;;9.10;3.17;;;;;;;;;;4990144;28;20647;-70
2021/04/13 01:52:49;;;;;;;10.43;3.23;;;;;;;;;;4987553;28;20197;-68
2021/04/13 01:55:23;;;;;;;7.90;3.67;;;;;;;;;;4996767;28;20650;-69
2021/04/13 01:58:15;;;;;;;5.70;3.03;;;;;;;;;;4984625;28;20264;-69
2021/04/13 02:01:24;;;;;;;11.47;3.40;;;;;;;;;;4993584;28;20199;-69
2021/04/13 02:04:02;;;;;;;8.10;3.23;;;;;;;;;;4977951;28;20230;-69
2021/04/13 02:06:34;;;;;;;4.73;2.60;;;;;;;;;;4974995;28;20238;-69
2021/04/13 02:12:07;;;;;;;12.33;3.50;;;;;;;;;;4979498;28;20199;-69
2021/04/13 02:14:38;;;;;;;9.07;3.47;;;;;;;;;;4994685;28;20205;-69
2021/04/13 02:17:10;;;;;;;7.03;2.70;;;;;;;;;;4983810;28;20217;-69
2021/04/13 02:19:36;;;;;;;9.70;3.50;;;;;;;;;;4992815;28;20651;-69
2021/04/13 02:22:08;;;;;;;5.70;2.90;;;;;;;;;;4995485;28;20198;-69
2021/04/13 02:24:34;;;;;;;7.60;3.03;;;;;;;;;;5000153;28;20664;-70
2021/04/13 02:27:03;;;;;;;9.20;3.40;;;;;;;;;;4989829;28;20218;-69
2021/04/13 02:29:50;;;;;;;8.90;3.20;;;;;;;;;;4989554;28;20191;-69
2021/04/13 02:32:28;;;;;;;7.03;2.97;;;;;;;;;;4992809;28;20624;-69
2021/04/13 02:34:59;;;;;;;11.47;3.10;;;;;;;;;;4981441;28;20199;-69
2021/04/13 02:37:32;;;;;;;12.97;3.40;;;;;;;;;;4996707;28;20182;-69
2021/04/13 02:40:07;;;;;;;9.60;3.03;;;;;;;;;;4989891;28;20244;-69
2021/04/13 02:42:37;;;;;;;9.47;3.50;;;;;;;;;;4994112;28;20300;-69
2021/04/13 02:45:08;;;;;;;12.17;2.97;;;;;;;;;;4983010;28;20229;-69
2021/04/13 02:47:43;;;;;;;9.30;3.27;;;;;;;;;;4997289;28;20653;-69
2021/04/13 02:50:11;;;;;;;8.63;4.00;;;;;;;;;;4988217;28;20194;-68
2021/04/13 02:52:42;;;;;;;9.93;3.50;;;;;;;;;;4998759;28;20201;-69
2021/04/13 02:55:09;;;;;;;12.63;4.03;;;;;;;;;;4984620;28;20195;-69
2021/04/13 02:57:42;;;;;;;8.00;3.07;;;;;;;;;;4998371;28;20194;-72
2021/04/13 03:00:18;;;;;;;9.00;3.40;;;;;;;;;;4985376;28;20291;-69
2021/04/13 03:02:47;;;;;;;10.47;4.40;;;;;;;;;;4997218;28;20214;-69
2021/04/13 03:05:22;;;;;;;10.77;3.83;;;;;;;;;;4986524;28;20565;-69
2021/04/13 03:07:48;;;;;;;7.87;3.67;;;;;;;;;;4994301;28;20666;-70
2021/04/13 03:10:16;;;;;;;11.77;4.53;;;;;;;;;;4993617;28;20190;-69
2021/04/13 03:12:46;;;;;;;8.73;3.60;;;;;;;;;;4992194;28;20187;-69
2021/04/13 03:15:15;;;;;;;13.30;3.70;;;;;;;;;;4986440;28;20195;-69
2021/04/13 03:17:46;;;;;;;6.37;3.63;;;;;;;;;;4993258;28;20233;-68
2021/04/13 03:20:14;;;;;;;12.50;4.30;;;;;;;;;;4990185;28;20566;-68
2021/04/13 03:22:40;;;;;;;12.17;4.17;;;;;;;;;;5000507;28;20186;-68
2021/04/13 03:25:09;;;;;;;13.33;4.90;;;;;;;;;;4999375;28;20194;-69
2021/04/13 03:27:36;;;;;;;12.70;4.43;;;;;;;;;;4986532;28;20745;-69
2021/04/13 03:30:05;;;;;;;14.13;4.70;;;;;;;;;;4994191;28;20223;-69
2021/04/13 03:32:35;;;;;;;10.40;4.40;;;;;;;;;;4987306;28;20273;-69
2021/04/13 03:35:01;;;;;;;13.37;4.97;;;;;;;;;;5000078;28;20615;-68
2021/04/13 03:37:27;;;;;;;17.27;4.90;;;;;;;;;;4986850;28;20194;-68
2021/04/13 03:39:53;;;;;;;11.87;4.53;;;;;;;;;;5003913;28;20203;-68
2021/04/13 03:42:26;;;;;;;13.97;5.27;;;;;;;;;;4989869;28;20313;-69
2021/04/13 03:44:53;;;;;;;14.07;5.60;;;;;;;;;;4995725;28;20195;-69
2021/04/13 03:47:29;;;;;;;14.40;6.27;;;;;;;;;;4993254;28;20215;-69
2021/04/13 03:49:56;;;;;;;13.47;5.67;;;;;;;;;;4994477;28;20202;-68
2021/04/13 03:52:30;;;;;;;12.07;5.10;;;;;;;;;;4985313;28;20619;-70
2021/04/13 03:54:56;;;;;;;13.33;5.67;;;;;;;;;;4995741;28;20190;-69
2021/04/13 03:57:31;;;;;;;13.07;5.20;;;;;;;;;;4991737;28;20187;-69
2021/04/13 03:59:58;;;;;;;11.93;5.13;;;;;;;;;;4997808;28;20208;-69
2021/04/13 04:02:24;;;;;;;15.23;5.60;;;;;;;;;;4991172;28;25999;-69
2021/04/13 04:05:08;;;;;;;16.17;4.73;;;;;;;;;;4997924;28;20299;-70
2021/04/13 04:07:38;;;;;;;10.53;4.87;;;;;;;;;;4987990;28;20243;-69
2021/04/13 04:10:41;;;;;;;13.33;5.20;;;;;;;;;;4996290;28;20265;-69
2021/04/13 04:13:15;;;;;;;12.33;5.40;;;;;;;;;;4994303;28;20248;-69
2021/04/13 04:15:44;;;;;;;15.33;5.20;;;;;;;;;;4992075;28;20614;-69
2021/04/13 04:18:28;;;;;;;13.67;5.73;;;;;;;;;;4989166;28;20246;-69
2021/04/13 04:20:54;;;;;;;14.00;6.17;;;;;;;;;;4993954;28;20253;-69
2021/04/13 04:23:27;;;;;;;16.70;5.40;;;;;;;;;;4989842;28;20512;-69
2021/04/13 04:25:58;;;;;;;15.17;5.67;;;;;;;;;;4992610;28;20565;-69
2021/04/13 04:28:30;;;;;;;16.50;5.63;;;;;;;;;;5001180;28;20587;-70
2021/04/13 04:31:34;;;;;;;16.17;5.80;;;;;;;;;;4989249;28;20290;-69
2021/04/13 04:34:15;;;;;;;15.87;5.23;;;;;;;;;;4983455;28;20309;-69
2021/04/13 04:36:44;;;;;;;9.90;5.20;;;;;;;;;;4996562;28;20197;-70
2021/04/13 04:39:26;;;;;;;16.63;5.20;;;;;;;;;;4983021;28;20592;-69
2021/04/13 04:41:54;;;;;;;13.20;6.13;;;;;;;;;;4994096;28;20246;-69
2021/04/13 04:44:25;;;;;;;12.73;5.80;;;;;;;;;;4989798;28;20221;-69
2021/04/13 04:46:54;;;;;;;15.77;6.30;;;;;;;;;;4992037;28;20215;-69
2021/04/13 04:49:20;;;;;;;9.50;5.47;;;;;;;;;;4993080;28;20191;-69
2021/04/13 04:51:52;;;;;;;13.57;6.47;;;;;;;;;;4982662;28;20233;-69
2021/04/13 04:54:17;;;;;;;16.23;5.90;;;;;;;;;;4991471;28;20187;-69
2021/04/13 04:56:43;;;;;;;14.03;6.10;;;;;;;;;;4985959;28;20587;-69
2021/04/13 04:59:08;;;;;;;15.50;6.20;;;;;;;;;;4990646;28;20196;-69
2021/04/13 05:01:34;;;;;;;11.40;6.30;;;;;;;;;;4981134;28;20681;-69
2021/04/13 05:03:59;;;;;;;18.20;6.37;;;;;;;;;;4991760;28;20214;-69
2021/04/13 05:06:26;;;;;;;18.67;6.17;;;;;;;;;;4986500;28;20222;-69
2021/04/13 05:08:52;;;;;;;18.30;6.73;;;;;;;;;;4990157;28;20183;-70
2021/04/13 05:11:18;;;;;;;15.83;6.20;;;;;;;;;;4985696;28;20191;-69
2021/04/13 05:13:43;;;;;;;13.43;5.60;;;;;;;;;;4992845;28;20193;-69
2021/04/13 05:16:09;;;;;;;15.50;5.13;;;;;;;;;;4983002;28;20215;-69
2021/04/13 05:18:35;;;;;;;14.37;5.00;;;;;;;;;;4998225;28;20213;-70
2021/04/13 05:21:00;;;;;;;13.77;4.60;;;;;;;;;;4993293;28;20210;-69
2021/04/13 05:23:26;;;;;;;14.97;4.13;;;;;;;;;;4983336;28;20600;-70
2021/04/13 05:25:51;;;;;;;12.33;4.20;;;;;;;;;;4992657;28;20728;-70
2021/04/13 05:28:18;;;;;;;14.53;3.73;;;;;;;;;;4983624;28;20199;-70
2021/04/13 05:30:43;;;;;;;14.20;3.80;;;;;;;;;;4994398;28;20195;-69
2021/04/13 05:33:10;;;;;;;13.97;3.80;;;;;;;;;;4986376;28;20662;-70
2021/04/13 05:35:36;;;;;;;13.70;3.30;;;;;;;;;;4994179;28;20715;-70
2021/04/13 05:38:05;;;;;;;14.37;4.83;;;;;;;;;;4988845;28;20266;-70
2021/04/13 05:40:34;;;;;;;16.30;3.77;;;;;;;;;;4991586;28;20563;-70
2021/04/13 05:43:00;;;;;;;7.00;3.47;;;;;;;;;;4986521;28;20186;-70
2021/04/13 05:45:29;;;;;;;15.30;4.13;;;;;;;;;;4991266;28;20228;-69
2021/04/13 05:47:57;;;;;;;14.53;4.13;;;;;;;;;;4984854;28;20241;-69
2021/04/13 05:50:29;;;;;;;19.33;4.87;;;;;;;;;;4989741;28;20218;-69
2021/04/13 05:52:54;;;;;;;15.40;4.10;;;;;;;;;;4988835;28;20184;-69
2021/04/13 05:55:19;;;;;;;16.87;4.10;;;;;;;;;;4989284;28;20706;-70
2021/04/13 05:57:47;;;;;;;17.77;5.60;;;;;;;;;;4993217;28;20180;-70
2021/04/13 06:00:14;;;;;;;19.80;4.47;;;;;;;;;;4980342;28;20191;-69
2021/04/13 06:02:41;;;;;;;14.43;4.00;;;;;;;;;;4993455;28;20273;-70
2021/04/13 06:05:08;;;;;;;15.93;4.97;;;;;;;;;;4982954;28;20202;-69
2021/04/13 06:07:34;;;;;;;16.00;5.67;;;;;;;;;;4994197;28;20741;-69
2021/04/13 06:09:59;;;;;;;15.83;5.27;;;;;;;;;;4983660;28;20306;-69
2021/04/13 06:12:24;;;;;;;15.67;4.93;;;;;;;;;;4996941;28;20658;-69
2021/04/13 06:14:51;;;;;;;12.07;3.33;;;;;;;;;;4984516;28;20184;-70
2021/04/13 06:17:17;;;;;;;15.83;4.30;;;;;;;;;;4991344;28;20648;-70
2021/04/13 06:19:42;;;;;;;15.03;3.30;;;;;;;;;;4983797;28;20289;-70
2021/04/13 06:22:07;;;;;;;14.50;3.10;;;;;;;;;;4991604;28;20190;-70
2021/04/13 06:24:33;;;;;;;8.27;3.70;;;;;;;;;;4979231;28;20230;-70
2021/04/13 06:26:58;;;;;;;13.80;3.47;;;;;;;;;;4999910;28;20519;-70
2021/04/13 06:29:23;;;;;;;6.93;2.90;;;;;;;;;;4992505;28;20194;-70
2021/04/13 06:31:49;;;;;;;12.73;3.00;;;;;;;;;;4985731;28;20206;-70
2021/04/13 06:34:14;;;;;;;18.97;2.87;;;;;;;;;;4995334;28;20210;-69
2021/04/13 06:36:40;;;;;;;13.23;3.03;;;;;;;;;;4989911;28;20184;-70
2021/04/13 06:39:06;;;;;;;9.43;2.90;;;;;;;;;;4990285;28;20185;-70
2021/04/13 06:41:48;;;;;;;13.43;3.23;;;;;;;;;;4985572;28;20255;-70
2021/04/13 06:44:51;;;;;;;14.50;4.07;;;;;;;;;;4993050;28;20203;-70
2021/04/13 06:47:39;;;;;;;11.30;3.27;;;;;;;;;;4987387;28;20377;-70
2021/04/13 06:50:29;;;;;;;20.50;2.73;;;;;;;;;;4992340;28;20201;-70
2021/04/13 06:53:21;;;;;;;14.23;2.47;;;;;;;;;;4983167;28;20883;-70
2021/04/13 06:55:53;;;;;;;15.83;2.90;;;;;;;;;;4998705;28;20616;-70
2021/04/13 06:58:27;;;;;;;10.03;2.20;;;;;;;;;;4983021;28;20526;-70
2021/04/13 07:01:06;;;;;;;13.97;2.83;;;;;;;;;;4996403;28;20702;-71
2021/04/13 07:03:44;;;;;;;14.57;3.20;;;;;;;;;;4985743;28;20218;-71
2021/04/13 07:06:16;;;;;;;8.40;2.27;;;;;;;;;;4993292;28;20211;-71
2021/04/13 07:08:47;;;;;;;14.87;2.20;;;;;;;;;;4987783;28;20201;-71
2021/04/13 07:11:30;;;;;;;14.00;2.30;;;;;;;;;;4994793;28;20268;-71
2021/04/13 07:14:15;;;;;;;15.30;1.73;;;;;;;;;;4986074;28;20187;-71
2021/04/13 07:16:50;;;;;;;11.73;2.13;;;;;;;;;;4995172;28;20180;-71
2021/04/13 07:19:29;;;;;;;18.77;2.90;;;;;;;;;;4984548;28;20190;-71
2021/04/13 07:22:23;;;;;;;12.13;2.00;;;;;;;;;;4998578;28;20183;-71
2021/04/13 07:25:00;;;;;;;11.13;1.80;;;;;;;;;;4995031;28;20507;-71
2021/04/13 07:27:38;;;;;;;17.60;1.60;;;;;;;;;;4988557;28;20298;-71
2021/04/13 07:30:12;;;;;;;15.03;2.10;;;;;;;;;;4998079;28;20214;-70
2021/04/13 07:32:38;;;;;;;11.80;1.47;;;;;;;;;;4996137;28;20187;-69
2021/04/13 07:35:09;;;;;;;9.57;1.43;;;;;;;;;;4985220;28;20661;-69
2021/04/13 07:37:38;;;;;;;7.37;1.60;;;;;;;;;;4995666;28;20674;-69
2021/04/13 07:40:16;;;;;;;12.37;1.67;;;;;;;;;;4987950;28;20183;-69
2021/04/13 07:42:48;;;;;;;12.37;1.60;;;;;;;;;;4989954;28;20224;-69
2021/04/13 07:45:30;;;;;;;6.07;1.50;;;;;;;;;;4986084;28;20265;-70
2021/04/13 07:48:02;;;;;;;8.93;1.70;;;;;;;;;;4995773;28;20207;-70
2021/04/13 07:51:02;;;;;;;14.27;1.67;;;;;;;;;;4988839;28;20246;-70
2021/04/13 07:53:54;;;;;;;11.87;1.30;;;;;;;;;;4982457;28;20191;-70
2021/04/13 07:56:38;;;;;;;7.90;1.30;;;;;;;;;;4989508;28;20191;-70
2021/04/13 07:59:14;;;;;;;9.43;1.10;;;;;;;;;;4986721;28;20615;-70
2021/04/13 08:01:39;;;;;;;9.37;1.20;;;;;;;;;;4997640;28;20201;-70
2021/04/13 08:04:04;;;;;;;8.47;1.00;;;;;;;;;;4992069;28;20214;-70
2021/04/13 08:06:30;;;;;;;11.80;1.63;;;;;;;;;;4991148;28;20195;-69
2021/04/13 08:09:34;;;;;;;10.40;1.20;;;;;;;;;;4990047;28;20244;-70
2021/04/13 08:12:07;;;;;;;7.90;1.00;;;;;;;;;;4982638;28;20199;-70
2021/04/13 08:14:39;;;;;;;9.03;1.53;;;;;;;;;;4987157;28;20631;-70
2021/04/13 08:17:13;;;;;;;9.60;1.00;;;;;;;;;;4979499;28;20578;-71
2021/04/13 08:19:40;;;;;;;10.13;1.20;;;;;;;;;;4991724;28;20196;-69
2021/04/13 08:22:08;;;;;;;9.60;1.03;;;;;;;;;;4986206;28;20319;-69
2021/04/13 08:24:44;;;;;;;8.83;1.80;;;;;;;;;;4989651;28;20195;-69
2021/04/13 08:27:18;;;;;;;9.10;1.13;;;;;;;;;;4986255;28;20241;-69
2021/04/13 08:29:57;;;;;;;8.13;1.30;;;;;;;;;;4992043;28;20192;-70
2021/04/13 08:33:02;;;;;;;10.77;1.57;;;;;;;;;;4989042;28;20210;-69
2021/04/13 08:35:37;;;;;;;9.73;1.00;;;;;;;;;;4995488;28;20175;-69
2021/04/13 08:38:40;;;;;;;9.63;1.10;;;;;;;;;;4983339;28;20245;-70
2021/04/13 08:41:23;;;;;;;8.87;1.00;;;;;;;;;;4994413;28;20191;-69
2021/04/13 08:43:56;;;;;;;5.30;0.87;;;;;;;;;;4990146;28;20202;-69
2021/04/13 08:46:22;;;;;;;8.93;1.03;;;;;;;;;;4997048;28;20202;-70
2021/04/13 08:48:55;;;;;;;6.53;0.87;;;;;;;;;;4980100;28;20187;-70
2021/04/13 08:51:42;;;;;;;2.67;0.70;;;;;;;;;;4996888;28;20186;-70
2021/04/13 08:54:33;;;;;;;7.70;1.03;;;;;;;;;;4980056;28;20779;-70
2021/04/13 08:57:04;;;;;;;11.67;1.33;;;;;;;;;;4993253;28;20190;-70
2021/04/13 08:59:40;;;;;;;8.47;0.87;;;;;;;;;;4985953;28;20203;-70
2021/04/13 09:02:33;;;;;;;6.30;1.00;;;;;;;;;;4993809;28;20263;-70
2021/04/13 09:05:20;;;;;;;8.00;1.03;;;;;;;;;;4988649;28;20199;-70
2021/04/13 09:08:25;;;;;;;4.30;0.90;;;;;;;;;;4989173;28;20726;-70
2021/04/13 09:11:15;;;;;;;5.23;0.60;;;;;;;;;;4995427;28;20576;-70
2021/04/13 09:13:43;;;;;;;7.83;1.50;;;;;;;;;;4983814;28;20658;-70
2021/04/13 09:16:08;;;;;;;6.80;0.80;;;;;;;;;;4994724;28;20724;-70
2021/04/13 09:18:46;;;;;;;5.47;1.00;;;;;;;;;;4979205;28;20179;-69
2021/04/13 09:21:23;;;;;;;5.00;0.57;;;;;;;;;;4984132;28;20557;-69
2021/04/13 09:24:09;;;;;;;7.32;1.00;;;;;;;;;;4974827;28;20566;-69
2021/04/13 09:26:48;;;;;;;8.52;0.88;;;;;;;;;;4987636;28;20529;-70
2021/04/13 09:29:48;;;;;;;4.68;0.60;;;;;;;;;;4978026;28;20282;-69
2021/04/13 09:32:25;;;;;;;5.63;0.60;;;;;;;;;;4992276;28;20713;-70
2021/04/13 09:35:05;;;;;;;4.80;1.02;;;;;;;;;;4981749;28;20235;-69
2021/04/13 09:37:38;;;;;;;12.80;1.30;;;;;;;;;;4993074;28;20186;-69
2021/04/13 09:40:10;;;;;;;3.43;0.90;;;;;;;;;;4988148;28;20190;-69
2021/04/13 09:42:57;;;;;;;11.00;1.67;;;;;;;;;;4993406;28;20243;-69
2021/04/13 09:45:41;;;;;;;7.40;1.07;;;;;;;;;;4984642;28;20194;-70
2021/04/13 09:48:44;;;;;;;6.43;0.90;;;;;;;;;;4991470;28;20190;-70
2021/04/13 09:51:41;;;;;;;4.30;0.80;;;;;;;;;;4981004;28;20210;-70
2021/04/13 09:54:42;;;;;;;5.13;0.87;;;;;;;;;;4992833;28;20174;-70
2021/04/13 09:57:22;;;;;;;4.03;0.90;;;;;;;;;;4980050;28;20183;-70
2021/04/13 10:00:06;;;;;;;7.50;0.80;;;;;;;;;;4995321;28;20183;-70
2021/04/13 10:02:50;;;;;;;7.73;0.93;;;;;;;;;;4983017;28;20229;-70
2021/04/13 10:05:28;;;;;;;4.60;1.00;;;;;;;;;;4997513;28;20651;-70
2021/04/13 10:08:00;;;;;;;7.07;0.98;;;;;;;;;;4987813;28;20210;-71
2021/04/13 10:10:54;;;;;;;3.92;0.60;;;;;;;;;;5002114;28;20700;-70
2021/04/13 10:13:51;;;;;;;8.53;1.93;;;;;;;;;;4987266;28;20763;-70
2021/04/13 10:16:32;;;;;;;9.60;0.80;;;;;;;;;;4994342;28;20662;-71
2021/04/13 10:19:42;;;;;;;4.83;1.17;;;;;;;;;;4996456;28;20199;-71
2021/04/13 10:22:35;;;;;;;4.03;1.00;;;;;;;;;;4985710;28;20191;-70
2021/04/13 10:25:00;;;;;;;3.80;1.07;;;;;;;;;;5002977;28;20214;-74
2021/04/13 10:27:25;;;;;;;10.43;1.10;;;;;;;;;;4988142;28;20238;-73
2021/04/13 10:30:29;;;;;;;6.67;1.30;;;;;;;;;;4998368;28;20647;-70
2021/04/13 10:33:05;;;;;;;6.93;0.83;;;;;;;;;;4986404;28;20590;-70
2021/04/13 10:35:58;;;;;;;7.80;1.00;;;;;;;;;;5003673;28;20275;-69
2021/04/13 10:38:51;;;;;;;9.23;0.87;;;;;;;;;;4988525;28;20206;-68
2021/04/13 10:41:40;;;;;;;3.00;0.70;;;;;;;;;;4996806;28;20254;-68
2021/04/13 10:44:15;;;;;;;3.13;0.73;;;;;;;;;;4986651;28;20273;-70
2021/04/13 10:47:06;;;;;;;6.68;0.95;;;;;;;;;;4996991;28;20297;-69
2021/04/13 10:50:16;;;;;;;3.78;0.98;;;;;;;;;;4988702;28;20193;-69
2021/04/13 10:53:29;;;;;;;5.95;0.75;;;;;;;;;;4995553;28;20214;-69
2021/04/13 10:56:12;;;;;;;8.60;1.20;;;;;;;;;;4955391;28;20195;-69
2021/04/13 10:58:56;;;;;;;7.72;0.77;;;;;;;;;;4946026;28;20185;-69
2021/04/13 11:01:46;;;;;;;5.00;0.77;;;;;;;;;;4979918;28;20329;-69
2021/04/13 11:04:42;;;;;;;6.00;1.20;;;;;;;;;;4981394;28;20867;-69
2021/04/13 11:07:41;;;;;;;6.13;1.13;;;;;;;;;;4996342;28;20237;-68
2021/04/13 11:10:50;;;;;;;5.72;1.25;;;;;;;;;;4985181;28;20772;-68
2021/04/13 11:13:47;;;;;;;5.53;1.10;;;;;;;;;;4997436;28;20186;-69
2021/04/13 11:16:43;;;;;;;4.68;1.10;;;;;;;;;;4983039;28;20245;-68
2021/04/13 11:19:26;;;;;;;4.32;0.68;;;;;;;;;;4990052;28;20186;-68
2021/04/13 11:22:10;;;;;;;3.08;0.68;;;;;;;;;;4989236;28;20187;-69
2021/04/13 11:24:45;;;;;;;3.95;1.05;;;;;;;;;;4996872;28;20291;-69
2021/04/13 11:27:21;;;;;;;6.00;0.60;;;;;;;;;;4987381;28;20257;-69
2021/04/13 11:30:07;;;;;;;4.80;1.13;;;;;;;;;;4995714;28;20700;-69
2021/04/13 11:33:07;;;;;;;3.72;0.57;;;;;;;;;;4989042;28;20275;-69
2021/04/13 11:35:36;;;;;;;4.15;0.73;;;;;;;;;;4996042;28;20183;-68
2021/04/13 11:38:29;;;;;;;6.60;0.90;;;;;;;;;;4997627;28;20651;-69
2021/04/13 11:41:09;;;;;;;4.13;0.90;;;;;;;;;;4986769;28;20199;-70
2021/04/13 11:43:41;;;;;;;2.22;0.68;;;;;;;;;;4997701;28;20178;-70
2021/04/13 11:46:14;;;;;;;5.63;0.60;;;;;;;;;;4992743;28;20322;-70
2021/04/13 11:48:44;;;;;;;1.50;0.32;;;;;;;;;;4993904;28;20179;-69
2021/04/13 11:51:12;;;;;;;3.55;0.90;;;;;;;;;;4996798;28;20194;-70
2021/04/13 11:53:44;;;;;;;5.80;0.77;;;;;;;;;;4989471;28;20187;-70
2021/04/13 11:56:29;;;;;;;7.50;0.77;;;;;;;;;;4988667;28;20175;-69
2021/04/13 11:59:13;;;;;;;2.40;0.70;;;;;;;;;;4989602;28;20191;-69
2021/04/13 12:01:44;;;;;;;6.90;0.77;;;;;;;;;;5009456;28;20214;-69
2021/04/13 12:04:12;;;;;;;3.70;0.63;;;;;;;;;;4989187;28;20287;-69
2021/04/13 12:07:04;;;;;;;1.17;0.30;;;;;;;;;;4991533;28;20223;-69
2021/04/13 12:09:42;;;;;;;3.95;0.50;;;;;;;;;;4993713;28;20175;-69
2021/04/13 12:12:33;;;;;;;4.72;0.60;;;;;;;;;;4994755;28;20510;-69
2021/04/13 12:15:18;;;;;;;7.35;0.70;;;;;;;;;;4995592;28;20193;-69
2021/04/13 12:17:44;;;;;;;1.75;0.32;;;;;;;;;;4985208;28;20498;-70
2021/04/13 12:22:58;;;;;;;3.33;0.65;;;;;;;;;;4984976;28;20199;-70
2021/04/13 12:26:02;;;;;;;2.83;0.52;;;;;;;;;;4998847;28;20187;-70
2021/04/13 12:28:33;;;;;;;3.00;0.43;;;;;;;;;;4989586;28;20635;-69
2021/04/13 12:31:05;;;;;;;0.90;0.30;;;;;;;;;;4991778;28;20675;-68
2021/04/13 12:33:30;;;;;;;4.82;0.40;;;;;;;;;;4988169;28;20631;-69
2021/04/13 12:35:57;;;;;;;2.08;0.30;;;;;;;;;;4997883;28;20259;-69
2021/04/13 12:38:45;;;;;;;1.98;0.38;;;;;;;;;;4996222;28;20236;-69
2021/04/13 12:41:21;;;;;;;4.47;0.95;;;;;;;;;;4991874;28;20603;-69
2021/04/13 12:43:56;;;;;;;3.85;0.40;;;;;;;;;;4992759;28;20575;-69
2021/04/13 12:46:36;;;;;;;6.63;0.60;;;;;;;;;;4999402;28;20689;-69
2021/04/13 12:49:12;;;;;;;1.90;0.40;;;;;;;;;;4990779;28;20176;-69
2021/04/13 12:51:58;;;;;;;3.13;0.47;;;;;;;;;;4994533;28;20241;-69
2021/04/13 12:54:31;;;;;;;1.27;0.30;;;;;;;;;;4983692;28;20322;-70
2021/04/13 12:57:01;;;;;;;3.58;0.38;;;;;;;;;;4995810;28;20227;-70
2021/04/13 12:59:28;;;;;;;3.28;0.70;;;;;;;;;;4996060;28;20241;-70
2021/04/13 13:01:54;;;;;;;4.88;0.43;;;;;;;;;;4983522;28;20281;-69
2021/04/13 13:04:22;;;;;;;4.68;0.32;;;;;;;;;;4988604;28;20286;-70
2021/04/13 13:06:52;;;;;;;1.35;0.20;;;;;;;;;;4982593;28;20563;-69
2021/04/13 13:09:31;;;;;;;2.67;0.40;;;;;;;;;;4992789;28;20207;-69
2021/04/13 13:12:05;;;;;;;4.07;0.52;;;;;;;;;;4984466;28;20207;-69
2021/04/13 13:14:33;;;;;;;3.95;0.52;;;;;;;;;;4991563;28;20248;-69
2021/04/13 13:17:00;;;;;;;4.15;0.68;;;;;;;;;;4982175;28;20183;-69
2021/04/13 13:19:32;;;;;;;3.90;0.32;;;;;;;;;;4990962;28;20198;-69
2021/04/13 13:22:00;;;;;;;2.95;0.52;;;;;;;;;;4983576;28;20249;-69
2021/04/13 13:24:34;;;;;;;4.28;0.50;;;;;;;;;;4990862;28;20187;-69
2021/04/13 13:27:26;;;;;;;2.33;0.50;;;;;;;;;;4984150;28;20570;-68
2021/04/13 13:29:52;;;;;;;1.50;0.35;;;;;;;;;;4994099;28;20195;-69
2021/04/13 13:32:21;;;;;;;1.95;0.50;;;;;;;;;;4984539;28;20581;-69
2021/04/13 13:34:53;;;;;;;1.83;0.30;;;;;;;;;;4993293;28;20330;-69
2021/04/13 13:37:24;;;;;;;1.25;0.30;;;;;;;;;;4976807;28;20191;-69
2021/04/13 13:39:51;;;;;;;2.03;0.60;;;;;;;;;;4995619;28;20682;-69
2021/04/13 13:42:17;;;;;;;1.13;0.30;;;;;;;;;;4985191;28;20288;-69
2021/04/13 13:44:46;;;;;;;2.47;0.40;;;;;;;;;;4994944;28;20205;-68
2021/04/13 13:47:33;;;;;;;2.17;0.40;;;;;;;;;;4982922;28;20199;-69
2021/04/13 13:50:01;;;;;;;2.75;0.57;;;;;;;;;;4996913;28;20278;-68
2021/04/13 13:52:54;;;;;;;3.05;0.43;;;;;;;;;;4985514;28;20198;-69
2021/04/13 13:55:21;;;;;;;2.42;0.50;;;;;;;;;;4992502;28;20611;-69
2021/04/13 13:57:57;;;;;;;1.50;0.40;;;;;;;;;;4970649;28;20682;-69
2021/04/13 14:00:32;;;;;;;3.75;0.60;;;;;;;;;;4978900;28;20222;-70
2021/04/13 14:03:12;;;;;;;1.58;0.43;;;;;;;;;;4974781;28;20642;-70
2021/04/13 14:05:44;;;;;;;1.48;0.40;;;;;;;;;;4979382;28;20199;-69
2021/04/13 14:08:40;;;;;;;2.33;0.43;;;;;;;;;;4973062;28;20334;-70
2021/04/13 14:11:11;;;;;;;2.30;0.57;;;;;;;;;;4981151;28;20215;-69
2021/04/13 14:13:52;;;;;;;5.18;0.77;;;;;;;;;;4972243;28;21653;-69
2021/04/13 14:16:49;;;;;;;2.70;0.50;;;;;;;;;;4981400;28;20794;-70
2021/04/13 14:19:23;;;;;;;3.90;0.55;;;;;;;;;;4972694;28;20229;-69
2021/04/13 14:21:51;;;;;;;1.70;0.28;;;;;;;;;;4981357;28;20676;-69
2021/04/13 14:24:22;;;;;;;4.50;0.50;;;;;;;;;;4973977;28;20865;-69
2021/04/13 14:26:49;;;;;;;3.15;0.40;;;;;;;;;;4980957;28;20211;-69
2021/04/13 14:29:21;;;;;;;2.35;0.60;;;;;;;;;;4977240;28;20342;-69
2021/04/13 14:31:50;;;;;;;2.30;0.68;;;;;;;;;;4978180;28;20205;-69
2021/04/13 14:34:17;;;;;;;5.55;0.70;;;;;;;;;;4982221;28;20187;-69
2021/04/13 14:36:44;;;;;;;2.03;0.85;;;;;;;;;;4972419;28;20201;-69
2021/04/13 14:39:13;;;;;;;5.70;0.60;;;;;;;;;;4981380;28;20187;-69
2021/04/13 14:41:38;;;;;;;2.50;0.43;;;;;;;;;;4972943;28;20235;-68
2021/04/13 14:44:04;;;;;;;2.08;0.47;;;;;;;;;;4981023;28;20575;-69
2021/04/13 14:46:30;;;;;;;2.85;0.30;;;;;;;;;;4973642;28;20219;-69
2021/04/13 14:48:56;;;;;;;4.68;0.40;;;;;;;;;;4982815;28;20187;-69
2021/04/13 14:51:21;;;;;;;2.33;0.40;;;;;;;;;;4981743;28;20183;-68
2021/04/13 14:53:48;;;;;;;1.35;0.45;;;;;;;;;;4993046;28;20176;-69
2021/04/13 14:56:13;;;;;;;3.08;0.65;;;;;;;;;;4985325;28;20270;-69
2021/04/13 14:58:39;;;;;;;2.30;0.65;;;;;;;;;;4996740;28;20270;-70
2021/04/13 15:01:05;;;;;;;1.75;0.47;;;;;;;;;;4982354;28;20229;-69
2021/04/13 15:03:31;;;;;;;3.55;0.70;;;;;;;;;;4994155;28;20699;-68
2021/04/13 15:05:56;;;;;;;2.38;0.70;;;;;;;;;;4996215;28;20663;-68
2021/04/13 15:08:25;;;;;;;3.58;0.88;;;;;;;;;;4988216;28;20190;-69
2021/04/13 15:10:56;;;;;;;3.53;1.15;;;;;;;;;;5000275;28;20179;-68
2021/04/13 15:13:21;;;;;;;2.38;0.68;;;;;;;;;;4992069;28;20256;-68
2021/04/13 15:15:46;;;;;;;2.80;0.40;;;;;;;;;;4998029;28;20283;-72
2021/04/13 15:18:14;;;;;;;2.15;0.50;;;;;;;;;;4988523;28;20190;-68
2021/04/13 15:20:40;;;;;;;0.68;0.20;;;;;;;;;;4992025;28;20282;-69
2021/04/13 15:23:07;;;;;;;1.60;0.47;;;;;;;;;;4988481;28;20662;-69
2021/04/13 15:25:33;;;;;;;2.20;0.40;;;;;;;;;;4992614;28;20314;-69
2021/04/13 15:28:00;;;;;;;3.63;0.50;;;;;;;;;;4987433;28;20205;-70
2021/04/13 15:30:29;;;;;;;1.23;0.40;;;;;;;;;;4992386;28;20210;-69
2021/04/13 15:32:55;;;;;;;4.90;0.60;;;;;;;;;;4985102;28;20466;-68